Time;durP1;ratioP1;P1;durP2;ratioP2;P2;SDS_P1;SDS_P2;PMS_P1;PMS_P2;Temp;Humidity;BMP_temperature;BMP_pressure;BME280_temperature;BME280_humidity;BME280_pressure;Samples;Min_cycle;Max_cycle;Signal;HPM_P1;HPM_P2
2022/08/10 00:00:28;;;;;;;8.53;2.58;;;;;;;16.91;85.02;96059.95;1785026;80;20974;-72
2022/08/10 00:02:11;;;;;;;3.33;2.17;;;;;;;16.94;85.58;96053.17;1768311;80;21074;-72
2022/08/10 00:04:38;;;;;;;3.60;1.85;;;;;;;16.98;85.27;96055.25;1784777;80;21006;-72
2022/08/10 00:07:04;;;;;;;3.45;2.02;;;;;;;16.93;85.45;96054.55;1784903;80;21019;-72
2022/08/10 00:09:31;;;;;;;1.80;1.70;;;;;;;16.87;85.35;96052.51;1784998;80;20975;-72
2022/08/10 00:11:58;;;;;;;3.95;2.12;;;;;;;16.80;85.00;96050.98;1784579;80;21010;-72
2022/08/10 00:14:25;;;;;;;3.05;1.87;;;;;;;16.79;85.15;96055.05;1758750;80;21029;-72
2022/08/10 00:16:51;;;;;;;2.12;1.72;;;;;;;16.73;84.98;96055.22;1784794;80;21141;-72
2022/08/10 00:19:18;;;;;;;4.47;1.92;;;;;;;16.75;85.35;96052.91;1785051;80;20970;-73
2022/08/10 00:21:46;;;;;;;2.10;1.90;;;;;;;16.72;84.69;96061.02;1784994;80;20999;-72
2022/08/10 00:24:13;;;;;;;7.05;2.00;;;;;;;16.65;84.77;96055.49;1784786;80;21018;-72
2022/08/10 00:26:40;;;;;;;3.08;1.85;;;;;;;16.72;85.47;96054.36;1784543;80;21006;-72
2022/08/10 00:29:06;;;;;;;4.62;2.00;;;;;;;16.77;85.24;96047.06;1784991;80;21449;-72
2022/08/10 00:31:33;;;;;;;4.08;2.10;;;;;;;16.73;84.92;96042.80;1784545;80;21030;-72
2022/08/10 00:33:59;;;;;;;3.27;1.80;;;;;;;16.79;85.49;96040.39;1785142;80;21031;-72
2022/08/10 00:36:26;;;;;;;2.75;1.98;;;;;;;16.84;85.30;96039.77;1784647;80;21014;-72
2022/08/10 00:38:53;;;;;;;1.92;1.57;;;;;;;16.84;84.90;96041.97;1784560;80;21544;-72
2022/08/10 00:41:19;;;;;;;2.80;2.12;;;;;;;16.78;84.24;96039.53;1784760;80;21479;-72
2022/08/10 00:43:46;;;;;;;3.25;1.90;;;;;;;16.73;84.46;96036.13;1785087;80;20963;-72
2022/08/10 00:46:13;;;;;;;2.72;1.65;;;;;;;16.70;84.41;96040.69;1784909;80;21002;-72
2022/08/10 00:48:40;;;;;;;8.75;2.02;;;;;;;16.63;84.57;96038.25;1784680;80;21046;-72
2022/08/10 00:51:06;;;;;;;2.60;1.90;;;;;;;16.63;85.09;96036.92;1758825;80;20984;-72
2022/08/10 00:53:33;;;;;;;3.20;2.20;;;;;;;16.56;84.98;96035.39;1784977;80;20982;-72
2022/08/10 00:56:00;;;;;;;5.40;1.98;;;;;;;16.57;85.26;96031.78;1784744;80;21488;-72
2022/08/10 00:58:27;;;;;;;3.40;1.85;;;;;;;16.59;85.10;96035.27;1785009;80;21014;-73
2022/08/10 01:00:54;;;;;;;1.82;1.72;;;;;;;16.60;85.13;96030.81;1784795;80;21046;-72
2022/08/10 01:03:21;;;;;;;3.10;1.55;;;;;;;16.62;84.91;96024.50;1785139;80;20998;-72
2022/08/10 01:06:02;;;;;;;2.62;1.72;;;;;;;16.57;84.32;96016.27;1784586;80;20991;-72
2022/08/10 01:08:46;;;;;;;2.85;1.65;;;;;;;16.51;84.48;96022.69;1784690;80;21022;-72
2022/08/10 01:11:33;;;;;;;1.70;1.60;;;;;;;16.50;84.29;96021.40;1783892;80;21066;-72
2022/08/10 01:14:35;;;;;;;2.70;1.80;;;;;;;16.42;84.17;96022.53;1783722;80;20999;-72
2022/08/10 01:17:29;;;;;;;2.70;1.62;;;;;;;16.40;84.21;96020.41;1784752;80;21066;-72
2022/08/10 01:20:10;;;;;;;2.98;1.60;;;;;;;16.37;83.99;96021.82;1784119;80;21032;-72
2022/08/10 01:23:05;;;;;;;3.35;1.40;;;;;;;16.29;83.77;96024.36;1784445;80;20987;-72
2022/08/10 01:25:37;;;;;;;2.58;1.60;;;;;;;16.17;83.67;96029.16;1784982;80;20971;-71
2022/08/10 01:28:31;;;;;;;3.75;1.70;;;;;;;16.12;83.91;96028.44;1784236;80;21062;-72
2022/08/10 01:31:01;;;;;;;2.70;2.10;;;;;;;16.09;84.17;96038.34;1784989;80;21059;-73
2022/08/10 01:33:33;;;;;;;4.75;1.72;;;;;;;16.03;84.25;96034.09;1759006;80;21461;-72
2022/08/10 01:36:16;;;;;;;2.08;1.70;;;;;;;16.06;84.75;96029.13;1784824;80;21027;-72
2022/08/10 01:38:49;;;;;;;3.57;1.73;;;;;;;16.04;83.95;96025.17;1785361;80;21504;-72
2022/08/10 01:41:37;;;;;;;4.40;1.72;;;;;;;15.90;83.95;96030.06;1785000;80;21348;-72
2022/08/10 01:44:11;;;;;;;1.98;1.77;;;;;;;15.79;84.13;96033.08;1784988;80;21050;-72
2022/08/10 01:46:43;;;;;;;1.80;1.57;;;;;;;15.80;84.04;96032.19;1784607;80;21097;-72
2022/08/10 01:49:13;;;;;;;2.58;1.70;;;;;;;15.71;83.97;96036.45;1784394;80;21054;-72
2022/08/10 01:51:54;;;;;;;2.12;1.42;;;;;;;15.63;84.32;96038.46;1785066;80;20983;-72
2022/08/10 01:54:24;;;;;;;2.12;1.42;;;;;;;15.55;84.02;96029.39;1784627;80;21058;-72
2022/08/10 01:56:55;;;;;;;2.40;2.00;;;;;;;15.45;84.21;96031.92;1784651;80;20995;-73
2022/08/10 01:59:38;;;;;;;7.10;1.90;;;;;;;15.42;84.75;96026.25;1784953;80;21018;-72
2022/08/10 02:02:08;;;;;;;2.00;1.52;;;;;;;15.41;84.96;96018.30;1785001;80;20983;-71
2022/08/10 02:04:39;;;;;;;2.72;1.70;;;;;;;15.33;84.59;96019.41;1784972;80;21078;-72
2022/08/10 02:07:10;;;;;;;4.08;1.80;;;;;;;15.27;85.02;96023.59;1784972;80;21046;-72
2022/08/10 02:09:41;;;;;;;2.02;1.50;;;;;;;15.34;85.38;96017.61;1784623;80;21492;-72
2022/08/10 02:12:16;;;;;;;7.28;1.60;;;;;;;15.43;85.41;96016.01;1785051;80;20995;-72
2022/08/10 02:14:51;;;;;;;1.92;1.37;;;;;;;15.43;84.45;96019.13;1784716;80;20987;-72
2022/08/10 02:17:25;;;;;;;1.62;1.52;;;;;;;15.33;84.06;96020.73;1783956;80;21548;-72
2022/08/10 02:19:56;;;;;;;7.17;1.60;;;;;;;15.18;83.94;96019.00;1784011;80;21046;-71
2022/08/10 02:22:25;;;;;;;2.85;1.82;;;;;;;15.08;84.15;96016.61;1785019;80;20986;-72
2022/08/10 02:24:53;;;;;;;3.65;2.80;;;;;;;14.95;84.71;96011.71;1784856;80;21034;-72
2022/08/10 02:27:24;;;;;;;5.20;2.30;;;;;;;14.84;85.09;96008.02;1784732;80;21508;-72
2022/08/10 02:29:53;;;;;;;3.42;1.70;;;;;;;14.86;85.88;96006.19;1784842;80;21057;-72
2022/08/10 02:32:23;;;;;;;1.60;1.32;;;;;;;14.93;86.04;96009.09;1784872;80;20990;-72
2022/08/10 02:34:51;;;;;;;3.37;1.60;;;;;;;15.01;85.41;96008.39;1758867;80;21496;-72
2022/08/10 02:37:22;;;;;;;1.50;1.40;;;;;;;15.04;85.71;96012.75;1784763;80;21034;-72
2022/08/10 02:39:48;;;;;;;1.92;1.55;;;;;;;15.08;85.48;96015.28;1784841;80;20975;-72
2022/08/10 02:42:27;;;;;;;3.15;1.50;;;;;;;15.12;85.51;96015.61;1784778;80;21007;-72
2022/08/10 02:45:04;;;;;;;4.95;1.70;;;;;;;15.17;85.46;96018.57;1784832;80;21509;-72
2022/08/10 02:48:00;;;;;;;1.35;1.25;;;;;;;15.24;85.79;96019.67;1783937;80;21023;-72
2022/08/10 02:50:34;;;;;;;1.60;1.50;;;;;;;15.29;85.63;96023.52;1785274;80;21015;-72
2022/08/10 02:53:13;;;;;;;1.60;1.50;;;;;;;15.32;85.54;96021.66;1784842;80;21501;-72
2022/08/10 02:55:51;;;;;;;2.55;1.50;;;;;;;15.30;84.97;96018.64;1769478;80;21029;-72
2022/08/10 02:58:23;;;;;;;2.22;1.50;;;;;;;15.33;85.39;96021.20;1778918;80;21577;-72
2022/08/10 03:00:53;;;;;;;2.00;1.60;;;;;;;15.28;84.96;96014.69;1761606;81;20983;-72
2022/08/10 03:03:28;;;;;;;4.05;1.42;;;;;;;15.32;85.10;96011.46;1779353;80;21438;-72
2022/08/10 03:06:02;;;;;;;1.45;1.35;;;;;;;15.33;84.79;96011.42;1779210;81;21022;-72
2022/08/10 03:08:33;;;;;;;1.87;1.32;;;;;;;15.28;85.04;96012.02;1779744;80;21015;-73
2022/08/10 03:11:03;;;;;;;2.45;1.50;;;;;;;15.29;85.17;96006.24;1779395;80;21559;-72
2022/08/10 03:13:32;;;;;;;2.92;1.70;;;;;;;15.34;85.19;96008.30;1779156;81;21066;-72
2022/08/10 03:16:02;;;;;;;1.60;1.50;;;;;;;15.35;84.88;96006.94;1779449;81;21003;-73
2022/08/10 03:18:31;;;;;;;5.45;1.47;;;;;;;15.34;84.75;96003.84;1779553;81;21500;-73
2022/08/10 03:20:59;;;;;;;3.52;1.52;;;;;;;15.42;85.21;96006.73;1779332;81;20999;-72
2022/08/10 03:23:27;;;;;;;3.15;1.55;;;;;;;15.42;84.67;95997.00;1779562;81;20971;-72
2022/08/10 03:25:56;;;;;;;6.25;1.65;;;;;;;15.42;84.61;96000.98;1779611;81;20987;-72
2022/08/10 03:28:26;;;;;;;1.40;1.30;;;;;;;15.45;84.57;96015.97;1779326;80;21026;-72
2022/08/10 03:30:55;;;;;;;2.02;1.57;;;;;;;15.46;84.78;96016.38;1778844;80;21022;-72
2022/08/10 03:33:24;;;;;;;2.20;1.75;;;;;;;15.42;84.50;96022.26;1779409;80;21018;-72
2022/08/10 03:35:51;;;;;;;1.92;1.50;;;;;;;15.40;84.72;96026.75;1779556;81;21006;-73
2022/08/10 03:38:18;;;;;;;4.15;1.50;;;;;;;15.36;84.35;96025.08;1779719;80;20984;-72
2022/08/10 03:40:47;;;;;;;4.25;1.62;;;;;;;15.28;84.70;96025.78;1779292;81;21023;-72
2022/08/10 03:43:19;;;;;;;4.50;1.70;;;;;;;15.28;85.23;96027.98;1751274;81;21002;-72
2022/08/10 03:45:51;;;;;;;1.90;1.70;;;;;;;15.36;85.47;96025.08;1751726;81;21018;-72
2022/08/10 03:48:20;;;;;;;4.75;1.70;;;;;;;15.42;85.39;96032.89;1779294;80;21018;-73
2022/08/10 03:50:49;;;;;;;2.12;1.57;;;;;;;15.51;85.57;96023.28;1779401;81;21062;-72
2022/08/10 03:53:17;;;;;;;10.45;1.90;;;;;;;15.56;84.95;96024.47;1751290;81;20979;-72
2022/08/10 03:55:44;;;;;;;5.12;1.70;;;;;;;15.56;84.91;96031.13;1779374;81;21050;-72
2022/08/10 03:58:12;;;;;;;2.60;1.85;;;;;;;15.59;84.74;96033.21;1779185;80;21543;-72
2022/08/10 04:00:40;;;;;;;1.75;1.42;;;;;;;15.63;84.71;96026.03;1779391;81;21513;-72
2022/08/10 04:03:08;;;;;;;1.50;1.40;;;;;;;15.70;84.60;96020.06;1779490;81;21038;-72
2022/08/10 04:05:35;;;;;;;3.10;1.65;;;;;;;15.74;84.50;96021.72;1779713;80;20987;-73
2022/08/10 04:08:02;;;;;;;2.62;1.70;;;;;;;15.77;84.45;96029.59;1779268;80;20971;-72
2022/08/10 04:10:29;;;;;;;2.75;1.60;;;;;;;15.82;84.38;96023.66;1779383;81;21010;-73
2022/08/10 04:12:56;;;;;;;5.85;1.75;;;;;;;15.79;83.83;96030.42;1779414;80;20991;-72
2022/08/10 04:15:25;;;;;;;2.05;1.70;;;;;;;15.80;84.10;96025.53;1779231;80;21524;-73
2022/08/10 04:17:52;;;;;;;3.67;1.85;;;;;;;15.81;84.33;96025.06;1779522;80;21549;-72
2022/08/10 04:20:27;;;;;;;4.28;2.02;;;;;;;15.86;84.16;96027.98;1779134;81;21082;-73
2022/08/10 04:22:58;;;;;;;2.30;2.00;;;;;;;15.85;83.73;96038.23;1773827;81;21572;-72
2022/08/10 04:25:26;;;;;;;3.67;1.82;;;;;;;15.82;83.31;96036.11;1751474;81;20998;-72
2022/08/10 04:27:54;;;;;;;2.40;1.82;;;;;;;15.78;83.99;96038.01;1779242;81;21445;-72
2022/08/10 04:30:21;;;;;;;2.92;1.70;;;;;;;15.84;83.96;96035.60;1779372;81;21008;-72
2022/08/10 04:32:51;;;;;;;1.70;1.60;;;;;;;15.84;83.70;96036.47;1779376;81;21003;-72
2022/08/10 04:35:22;;;;;;;2.60;1.75;;;;;;;15.78;83.84;96042.86;1779530;80;21019;-72
2022/08/10 04:37:50;;;;;;;3.05;1.70;;;;;;;15.78;83.85;96043.33;1779250;80;21003;-72
2022/08/10 04:40:18;;;;;;;2.75;1.92;;;;;;;15.86;84.40;96039.95;1779435;81;21042;-72
2022/08/10 04:42:46;;;;;;;4.30;1.80;;;;;;;15.94;84.00;96036.58;1779271;81;21058;-72
2022/08/10 04:45:14;;;;;;;2.35;1.85;;;;;;;15.94;83.66;96041.90;1779302;80;21026;-72
2022/08/10 04:47:41;;;;;;;2.60;1.40;;;;;;;15.95;84.14;96045.42;1779429;80;20998;-72
2022/08/10 04:50:08;;;;;;;4.85;2.00;;;;;;;16.05;84.29;96042.91;1779336;80;21011;-72
2022/08/10 04:52:35;;;;;;;3.00;1.90;;;;;;;16.14;83.79;96046.57;1779110;80;21094;-72
2022/08/10 04:55:02;;;;;;;3.98;1.98;;;;;;;16.14;83.41;96043.05;1779453;81;20987;-73
2022/08/10 04:57:29;;;;;;;2.02;1.40;;;;;;;16.16;83.70;96047.86;1780400;80;21038;-72
2022/08/10 04:59:56;;;;;;;6.35;2.67;;;;;;;16.27;83.80;96047.03;1785168;80;20979;-72
2022/08/10 05:02:24;;;;;;;4.55;1.70;;;;;;;16.27;82.26;96045.70;1784719;80;21737;-72
2022/08/10 05:04:50;;;;;;;2.70;1.50;;;;;;;16.20;82.69;96044.16;1785103;80;21032;-73
2022/08/10 05:07:17;;;;;;;2.95;1.67;;;;;;;16.25;83.33;96046.20;1784939;80;21449;-72
2022/08/10 05:09:46;;;;;;;2.72;1.70;;;;;;;16.24;82.90;96047.14;1784626;80;21034;-73
2022/08/10 05:12:13;;;;;;;1.72;1.62;;;;;;;16.23;82.87;96044.94;1784604;80;21030;-73
2022/08/10 05:14:40;;;;;;;1.82;1.62;;;;;;;16.29;83.01;96049.66;1784993;80;20962;-73
2022/08/10 05:17:06;;;;;;;5.83;1.67;;;;;;;16.33;83.34;96048.17;1785108;80;21006;-73
2022/08/10 05:19:33;;;;;;;1.65;1.55;;;;;;;16.38;82.96;96035.56;1784752;80;20999;-73
2022/08/10 05:22:00;;;;;;;5.08;1.70;;;;;;;16.49;83.23;96032.52;1785070;80;21042;-73
2022/08/10 05:24:26;;;;;;;1.52;1.42;;;;;;;16.58;82.90;96033.55;1784990;80;20999;-73
2022/08/10 05:26:53;;;;;;;1.85;1.50;;;;;;;16.60;81.75;96033.00;1784575;80;21023;-72
2022/08/10 05:29:20;;;;;;;3.25;1.70;;;;;;;16.48;81.72;96028.13;1785051;80;21002;-73
2022/08/10 05:31:48;;;;;;;2.10;1.90;;;;;;;16.43;82.39;96039.41;1784924;80;21038;-72
2022/08/10 05:34:16;;;;;;;3.83;1.70;;;;;;;16.43;82.73;96040.27;1758432;80;20987;-73
2022/08/10 05:36:45;;;;;;;4.30;2.15;;;;;;;16.47;82.93;96042.83;1784627;80;21061;-72
2022/08/10 05:39:14;;;;;;;3.08;2.10;;;;;;;16.51;82.22;96042.67;1784489;80;21057;-73
2022/08/10 05:41:41;;;;;;;2.62;1.90;;;;;;;16.42;82.04;96041.17;1784813;80;20979;-73
2022/08/10 05:44:08;;;;;;;2.17;1.35;;;;;;;16.42;82.43;96037.65;1784607;80;20983;-73
2022/08/10 05:46:35;;;;;;;3.05;1.98;;;;;;;16.39;82.88;96044.42;1784692;80;21477;-73
2022/08/10 05:49:01;;;;;;;3.22;1.92;;;;;;;16.40;83.01;96043.48;1784791;80;21011;-73
2022/08/10 05:51:29;;;;;;;2.90;1.95;;;;;;;16.44;83.84;96036.67;1784863;80;20971;-73
2022/08/10 05:53:57;;;;;;;2.10;1.80;;;;;;;16.65;84.60;96036.84;1784784;80;21042;-73
2022/08/10 05:56:24;;;;;;;4.67;2.10;;;;;;;16.81;84.33;96026.09;1758648;80;21560;-73
2022/08/10 05:58:51;;;;;;;3.05;1.90;;;;;;;16.90;84.19;96032.87;1780760;80;21505;-73
2022/08/10 06:01:20;;;;;;;3.08;2.10;;;;;;;17.05;84.34;96026.97;1779389;81;21480;-73
2022/08/10 06:03:57;;;;;;;2.90;1.80;;;;;;;17.19;84.03;96034.47;1779400;81;21018;-73
2022/08/10 06:06:22;;;;;;;3.52;1.90;;;;;;;17.33;83.49;96030.41;1779325;81;21007;-73
2022/08/10 06:08:50;;;;;;;3.83;2.02;;;;;;;17.39;83.47;96032.38;1779416;80;21030;-73
2022/08/10 06:11:18;;;;;;;3.67;2.00;;;;;;;17.53;83.73;96031.36;1779447;80;21014;-73
2022/08/10 06:16:34;;;;;;;2.70;2.15;;;;;;;17.81;82.66;96032.97;1779132;80;21023;-72
2022/08/10 06:19:02;;;;;;;3.85;2.17;;;;;;;18.04;83.00;96036.08;1779440;80;20987;-72
2022/08/10 06:21:31;;;;;;;4.55;2.30;;;;;;;18.16;82.37;96027.53;1779568;81;21078;-72
2022/08/10 06:24:00;;;;;;;2.80;2.50;;;;;;;18.33;82.41;96029.50;1779369;80;21461;-72
2022/08/10 06:26:27;;;;;;;4.17;2.37;;;;;;;18.43;81.86;96021.97;1751243;81;21018;-71
2022/08/10 06:28:59;;;;;;;3.25;2.40;;;;;;;18.53;81.69;96021.11;1779131;81;21509;-71
2022/08/10 06:31:27;;;;;;;3.00;2.80;;;;;;;18.61;81.15;96024.31;1779361;80;21062;-71
2022/08/10 06:33:55;;;;;;;4.33;2.80;;;;;;;18.71;81.40;96024.79;1779368;81;21038;-71
2022/08/10 06:36:24;;;;;;;3.40;3.10;;;;;;;18.80;80.04;96027.10;1750803;81;21017;-71
2022/08/10 06:38:52;;;;;;;3.72;3.33;;;;;;;18.94;80.47;96015.78;1779419;81;21022;-71
2022/08/10 06:41:23;;;;;;;5.22;3.08;;;;;;;19.15;79.77;96021.51;1779411;80;21003;-71
2022/08/10 06:43:58;;;;;;;4.47;3.25;;;;;;;19.30;78.37;96019.91;1779057;81;21007;-71
2022/08/10 06:46:27;;;;;;;3.52;2.87;;;;;;;19.39;79.08;96018.62;1777899;81;21023;-71
2022/08/10 06:49:00;;;;;;;4.20;3.25;;;;;;;19.42;77.44;96023.83;1779666;81;21006;-71
2022/08/10 06:51:32;;;;;;;4.33;3.40;;;;;;;19.42;78.22;96023.36;1779469;81;21581;-71
2022/08/10 06:54:03;;;;;;;5.15;3.55;;;;;;;19.59;78.41;96025.25;1779573;80;20994;-72
2022/08/10 06:56:34;;;;;;;4.55;3.00;;;;;;;19.66;78.17;96025.36;1779320;81;21011;-72
2022/08/10 06:59:22;;;;;;;7.75;3.87;;;;;;;19.72;77.82;96022.89;1782871;80;21050;-71
2022/08/10 07:01:55;;;;;;;4.20;3.65;;;;;;;19.74;77.48;96023.69;1784846;80;21058;-71
2022/08/10 07:04:30;;;;;;;7.73;3.50;;;;;;;19.75;77.55;96025.41;1785019;80;21008;-71
2022/08/10 07:07:03;;;;;;;7.90;3.80;;;;;;;19.82;77.68;96028.20;1785023;80;21053;-71
2022/08/10 07:09:32;;;;;;;6.70;3.58;;;;;;;19.79;76.92;96033.70;1785169;80;20978;-71
2022/08/10 07:11:59;;;;;;;5.33;3.27;;;;;;;19.80;77.49;96030.55;1785189;80;21006;-71
2022/08/10 07:14:28;;;;;;;3.67;3.37;;;;;;;19.81;78.05;96026.95;1785054;80;21003;-72
2022/08/10 07:16:56;;;;;;;3.52;3.22;;;;;;;19.87;77.85;96032.00;1785097;80;21018;-71
2022/08/10 07:19:24;;;;;;;6.67;3.42;;;;;;;19.92;77.35;96031.30;1785335;80;20951;-71
2022/08/10 07:21:53;;;;;;;3.60;3.30;;;;;;;19.97;77.14;96033.28;1758978;80;20947;-71
2022/08/10 07:24:21;;;;;;;5.15;3.40;;;;;;;20.01;77.14;96040.23;1785177;80;20964;-71
2022/08/10 07:26:52;;;;;;;4.53;3.42;;;;;;;20.10;77.43;96034.89;1784945;80;21015;-71
2022/08/10 07:29:20;;;;;;;4.58;3.33;;;;;;;20.15;76.83;96035.53;1785007;80;21440;-71
2022/08/10 07:31:49;;;;;;;3.50;3.20;;;;;;;20.16;76.58;96035.05;1785060;80;21002;-71
2022/08/10 07:34:20;;;;;;;2.98;2.70;;;;;;;20.16;76.62;96036.39;1759071;80;21508;-71
2022/08/10 07:36:48;;;;;;;5.85;3.33;;;;;;;20.21;76.87;96040.60;1785192;80;21519;-71
2022/08/10 07:39:16;;;;;;;3.55;3.12;;;;;;;20.23;76.15;96042.70;1784836;80;21015;-71
2022/08/10 07:41:46;;;;;;;7.58;3.30;;;;;;;20.28;75.94;96046.02;1785096;80;21501;-71
2022/08/10 07:44:14;;;;;;;6.30;2.80;;;;;;;20.32;75.92;96044.94;1784846;80;21476;-72
2022/08/10 07:46:45;;;;;;;4.28;3.05;;;;;;;20.38;75.76;96042.89;1784589;80;20987;-72
2022/08/10 07:49:22;;;;;;;11.05;3.15;;;;;;;20.44;75.41;96041.27;1785103;80;20998;-71
2022/08/10 07:51:55;;;;;;;4.47;2.95;;;;;;;20.48;75.37;96039.66;1785163;80;21014;-72
2022/08/10 07:54:24;;;;;;;5.08;3.20;;;;;;;20.41;74.76;96044.08;1785000;80;20975;-71
2022/08/10 07:56:55;;;;;;;4.08;3.12;;;;;;;20.38;75.24;96046.91;1785037;80;21018;-71
2022/08/10 07:59:27;;;;;;;5.83;3.72;;;;;;;20.42;75.21;96041.81;1784878;80;21018;-71
2022/08/10 08:01:55;;;;;;;3.87;3.45;;;;;;;20.35;74.45;96047.94;1784576;80;21512;-71
2022/08/10 08:04:24;;;;;;;3.60;3.30;;;;;;;20.28;74.12;96047.84;1785134;80;21037;-71
2022/08/10 08:06:51;;;;;;;4.87;3.65;;;;;;;20.16;74.86;96045.32;1784811;80;21058;-71
2022/08/10 08:09:20;;;;;;;5.70;3.75;;;;;;;20.08;74.72;96051.05;1785023;80;21011;-71
2022/08/10 08:11:48;;;;;;;6.78;5.08;;;;;;;19.97;75.05;96044.48;1785105;80;21066;-71
2022/08/10 08:14:16;;;;;;;6.33;4.30;;;;;;;20.00;76.18;96049.67;1758660;80;21006;-71
2022/08/10 08:16:46;;;;;;;7.55;4.10;;;;;;;20.05;75.78;96046.30;1785111;80;21010;-71
2022/08/10 08:19:16;;;;;;;8.65;5.33;;;;;;;20.07;75.41;96044.42;1785147;80;21476;-71
2022/08/10 08:21:43;;;;;;;8.83;4.65;;;;;;;20.14;75.76;96049.88;1784831;80;21037;-71
2022/08/10 08:24:14;;;;;;;4.35;3.92;;;;;;;20.21;75.58;96048.64;1785070;80;20979;-71
2022/08/10 08:26:43;;;;;;;5.22;4.17;;;;;;;20.19;75.43;96053.20;1785116;80;21006;-71
2022/08/10 08:29:11;;;;;;;6.08;3.70;;;;;;;20.18;75.08;96052.78;1784713;80;21034;-71
2022/08/10 08:31:40;;;;;;;5.47;3.85;;;;;;;20.23;75.53;96054.77;1784955;80;20955;-71
2022/08/10 08:34:08;;;;;;;5.00;3.45;;;;;;;20.38;75.23;96054.95;1784928;80;20983;-71
2022/08/10 08:36:38;;;;;;;6.92;4.12;;;;;;;20.47;74.67;96054.51;1784884;80;21105;-71
2022/08/10 08:39:05;;;;;;;5.20;3.65;;;;;;;20.56;74.97;96049.17;1784952;80;20982;-71
2022/08/10 08:42:13;;;;;;;5.45;3.65;;;;;;;20.68;74.96;96045.87;1785021;80;20971;-71
2022/08/10 08:45:14;;;;;;;3.40;3.10;;;;;;;20.78;73.77;96044.92;1784789;80;21466;-71
2022/08/10 08:48:19;;;;;;;3.27;2.98;;;;;;;20.83;72.89;96041.05;1785050;80;21010;-72
2022/08/10 08:51:04;;;;;;;4.50;3.35;;;;;;;20.85;72.88;96044.52;1784963;80;21059;-71
2022/08/10 08:53:59;;;;;;;4.87;3.55;;;;;;;20.95;73.48;96038.21;1784926;80;21054;-71
2022/08/10 08:56:45;;;;;;;5.75;3.75;;;;;;;21.07;73.60;96042.93;1784655;80;21089;-71
2022/08/10 08:59:26;;;;;;;5.33;3.35;;;;;;;21.11;72.49;96042.28;1780142;80;21047;-71
2022/08/10 09:02:34;;;;;;;3.60;3.30;;;;;;;21.01;73.23;96048.61;1779480;81;20988;-71
2022/08/10 09:05:42;;;;;;;3.45;2.90;;;;;;;20.88;73.72;96052.41;1778810;81;21049;-71
2022/08/10 09:08:41;;;;;;;5.78;2.95;;;;;;;20.70;73.62;96050.20;1779461;80;21015;-71
2022/08/10 09:11:38;;;;;;;4.53;4.12;;;;;;;20.67;74.37;96057.55;1778998;81;20979;-71
2022/08/10 09:14:25;;;;;;;4.20;3.58;;;;;;;20.63;74.01;96058.16;1779213;81;21030;-71
2022/08/10 09:17:21;;;;;;;14.43;4.10;;;;;;;20.62;74.18;96059.60;1757472;81;20975;-71
2022/08/10 09:20:07;;;;;;;4.42;3.65;;;;;;;20.64;74.67;96059.05;1752824;81;21012;-71
2022/08/10 09:23:02;;;;;;;8.08;3.37;;;;;;;20.61;74.57;96056.03;1779497;81;20976;-71
2022/08/10 09:25:40;;;;;;;4.47;3.27;;;;;;;20.59;74.66;96064.64;1779293;81;21530;-70
2022/08/10 09:28:17;;;;;;;8.43;3.20;;;;;;;20.48;74.23;96069.16;1779585;80;21075;-71
2022/08/10 09:30:59;;;;;;;4.40;3.33;;;;;;;20.37;74.22;96060.80;1778813;80;21106;-71
2022/08/10 09:33:37;;;;;;;3.83;3.25;;;;;;;20.31;74.40;96065.13;1779509;81;20951;-71
2022/08/10 09:36:19;;;;;;;6.37;3.30;;;;;;;20.28;75.15;96063.44;1772197;81;21110;-71
2022/08/10 09:38:59;;;;;;;3.00;2.70;;;;;;;20.22;75.09;96061.08;1778921;81;20984;-71
2022/08/10 09:42:05;;;;;;;3.87;2.65;;;;;;;20.24;75.63;96063.22;1779438;81;20984;-71
2022/08/10 09:44:44;;;;;;;5.67;5.15;;;;;;;20.23;74.70;96061.94;1779379;81;20987;-71
2022/08/10 09:47:45;;;;;;;5.75;3.05;;;;;;;20.22;75.66;96069.12;1779447;80;20994;-71
2022/08/10 09:50:32;;;;;;;4.53;2.75;;;;;;;20.31;75.63;96063.80;1779382;81;21465;-71
2022/08/10 09:53:27;;;;;;;3.27;3.00;;;;;;;20.37;75.32;96065.30;1745306;81;21039;-71
2022/08/10 09:56:41;;;;;;;3.58;2.65;;;;;;;20.41;74.48;96060.16;1719142;83;21521;-71
2022/08/10 09:59:31;;;;;;;3.27;2.98;;;;;;;20.47;75.45;96058.05;1718399;83;21087;-71
2022/08/10 10:02:27;;;;;;;8.55;2.60;;;;;;;20.66;74.98;96057.14;1718717;83;21066;-71
2022/08/10 10:05:26;;;;;;;4.25;2.90;;;;;;;20.80;74.58;96056.45;1719007;83;21523;-71
2022/08/10 10:08:22;;;;;;;2.80;2.55;;;;;;;20.94;74.44;96054.78;1718776;83;21000;-71
2022/08/10 10:11:26;;;;;;;3.83;2.55;;;;;;;21.05;74.09;96050.19;1718700;83;21031;-71
2022/08/10 10:14:19;;;;;;;2.62;2.42;;;;;;;21.18;73.61;96052.61;1717119;83;21004;-71
2022/08/10 10:17:14;;;;;;;5.87;2.92;;;;;;;21.36;73.77;96047.20;1718582;83;21073;-71
2022/08/10 10:20:00;;;;;;;3.22;2.92;;;;;;;21.56;72.95;96048.36;1718623;83;21102;-71
2022/08/10 10:22:42;;;;;;;5.05;2.90;;;;;;;21.62;71.31;96041.81;1718971;83;21532;-71
2022/08/10 10:25:21;;;;;;;2.95;2.67;;;;;;;21.64;71.72;96042.56;1690558;83;21055;-71
2022/08/10 10:28:17;;;;;;;7.10;2.62;;;;;;;21.64;71.50;96041.70;1718741;83;20995;-71
2022/08/10 10:31:04;;;;;;;3.50;2.75;;;;;;;21.64;72.00;96043.05;1719040;83;20964;-71
2022/08/10 10:33:55;;;;;;;3.27;2.80;;;;;;;21.70;72.17;96041.38;1707527;83;21024;-71
2022/08/10 10:36:23;;;;;;;3.02;2.83;;;;;;;21.79;71.78;96043.05;1718668;83;20991;-72
2022/08/10 10:38:53;;;;;;;3.95;2.08;;;;;;;21.77;71.75;96042.30;1718896;83;21090;-71
2022/08/10 10:41:47;;;;;;;2.90;2.60;;;;;;;21.71;71.37;96042.62;1718815;83;21027;-71
2022/08/10 10:44:31;;;;;;;3.77;2.22;;;;;;;21.69;71.07;96042.31;1718562;83;21081;-71
2022/08/10 10:47:25;;;;;;;2.30;2.10;;;;;;;21.71;71.08;96037.25;1719192;83;21015;-71
2022/08/10 10:50:06;;;;;;;3.83;2.30;;;;;;;21.72;69.62;96035.42;1718685;83;21526;-71
2022/08/10 10:53:17;;;;;;;3.37;2.70;;;;;;;21.69;70.49;96038.28;1719119;83;21568;-71
2022/08/10 10:56:05;;;;;;;2.98;2.75;;;;;;;21.80;70.52;96026.48;1718912;83;21528;-71
2022/08/10 10:58:46;;;;;;;3.40;3.10;;;;;;;21.85;70.36;96024.41;1718900;83;21103;-70
2022/08/10 11:01:33;;;;;;;3.47;2.58;;;;;;;21.81;69.84;96032.23;1718728;83;21076;-71
2022/08/10 11:04:14;;;;;;;4.72;2.30;;;;;;;21.77;69.30;96023.50;1718232;83;21047;-70
2022/08/10 11:07:17;;;;;;;2.15;1.95;;;;;;;21.67;69.58;96030.33;1708262;83;20995;-71
2022/08/10 11:09:49;;;;;;;1.80;1.70;;;;;;;21.50;69.36;96032.59;1719134;83;21000;-71
2022/08/10 11:12:38;;;;;;;3.02;1.70;;;;;;;21.26;69.39;96033.89;1718426;83;21035;-71
2022/08/10 11:15:28;;;;;;;1.60;1.27;;;;;;;21.08;69.46;96026.35;1718744;83;21038;-71
2022/08/10 11:18:08;;;;;;;4.00;1.30;;;;;;;20.98;69.89;96031.34;1673681;85;21065;-70
2022/08/10 11:21:10;;;;;;;2.08;1.37;;;;;;;20.85;70.05;96037.82;1708387;83;21122;-71
2022/08/10 11:23:59;;;;;;;1.47;1.37;;;;;;;20.79;70.77;96033.23;1718956;83;21023;-70
2022/08/10 11:26:31;;;;;;;1.00;1.00;;;;;;;20.84;70.93;96020.45;1719049;83;21039;-70
2022/08/10 11:29:15;;;;;;;1.23;1.13;;;;;;;21.04;71.10;96018.06;1716060;83;21039;-70
2022/08/10 11:32:02;;;;;;;2.08;1.27;;;;;;;21.22;70.47;96025.59;1717598;83;21845;-70
2022/08/10 11:34:49;;;;;;;2.50;1.27;;;;;;;21.33;70.73;96027.25;1718816;83;21031;-70
2022/08/10 11:37:44;;;;;;;3.87;1.37;;;;;;;21.46;70.31;96026.13;1718363;83;21123;-70
2022/08/10 11:40:19;;;;;;;3.12;1.35;;;;;;;21.66;70.62;96020.52;1711447;83;21003;-70
2022/08/10 11:43:17;;;;;;;2.47;1.40;;;;;;;21.88;67.96;96020.19;1719045;83;21497;-71
2022/08/10 11:45:52;;;;;;;1.87;1.40;;;;;;;22.26;69.74;96009.09;1718389;83;21860;-71
2022/08/10 11:48:27;;;;;;;1.60;1.50;;;;;;;22.93;67.05;96010.95;1719003;83;21497;-71
2022/08/10 11:51:02;;;;;;;4.47;1.57;;;;;;;23.03;66.03;96020.67;1718950;83;21070;-70
2022/08/10 11:53:47;;;;;;;1.70;1.20;;;;;;;22.97;65.50;96023.27;1718396;83;21018;-70
2022/08/10 11:56:19;;;;;;;2.02;1.32;;;;;;;22.76;63.83;96030.79;1710796;83;21039;-70
2022/08/10 12:01:33;;;;;;;2.02;1.30;;;;;;;22.28;64.15;96036.76;1718786;83;21512;-70
2022/08/10 12:04:06;;;;;;;1.37;1.27;;;;;;;22.24;65.45;96036.05;1719190;83;21027;-70
2022/08/10 12:06:36;;;;;;;2.10;1.50;;;;;;;22.26;65.37;96031.95;1719026;83;21114;-70
2022/08/10 12:09:04;;;;;;;3.30;1.40;;;;;;;22.47;65.72;96013.69;1719072;83;21470;-70
2022/08/10 12:11:32;;;;;;;1.90;1.30;;;;;;;22.61;64.40;96014.22;1718968;83;21494;-70
2022/08/10 12:14:35;;;;;;;1.65;1.42;;;;;;;23.00;64.41;96011.45;1718903;83;21051;-70